Time;durP1;ratioP1;P1;durP2;ratioP2;P2;SDS_P1;SDS_P2;PMS_P1;PMS_P2;Temp;Humidity;BMP_temperature;BMP_pressure;BME280_temperature;BME280_humidity;BME280_pressure;Samples;Min_cycle;Max_cycle;Signal;HPM_P1;HPM_P2
2023/04/08 00:00:46;;;;;;;19.93;11.60;;;5.30;99.90;;;;;;4979613;28;20339;-81
2023/04/08 00:03:13;;;;;;;17.87;10.17;;;5.30;99.90;;;;;;4979235;28;20792;-82
2023/04/08 00:05:40;;;;;;;19.70;10.63;;;5.30;99.90;;;;;;4976307;28;20256;-79
2023/04/08 00:08:08;;;;;;;18.80;11.37;;;5.30;99.90;;;;;;4978572;28;20591;-79
2023/04/08 00:10:35;;;;;;;17.47;11.33;;;5.30;99.90;;;;;;4987251;28;20279;-80
2023/04/08 00:13:02;;;;;;;17.13;11.20;;;5.30;99.90;;;;;;5002838;28;20235;-79
2023/04/08 00:15:30;;;;;;;18.60;11.67;;;5.30;99.90;;;;;;5001919;28;20812;-79
2023/04/08 00:17:57;;;;;;;18.53;11.03;;;5.30;99.90;;;;;;5016463;28;20232;-79
2023/04/08 00:20:24;;;;;;;18.17;11.20;;;5.30;99.90;;;;;;5001123;28;20245;-79
2023/04/08 00:22:51;;;;;;;17.97;11.60;;;5.30;99.90;;;;;;5002241;28;20225;-79
2023/04/08 00:25:18;;;;;;;17.37;10.93;;;5.30;99.90;;;;;;4998283;28;20229;-79
2023/04/08 00:27:45;;;;;;;15.83;9.87;;;5.30;99.90;;;;;;5003252;28;20253;-81
2023/04/08 00:30:11;;;;;;;15.20;10.73;;;5.40;99.90;;;;;;5000878;28;20505;-80
2023/04/08 00:32:39;;;;;;;14.90;10.43;;;5.40;99.90;;;;;;5000594;28;20243;-79
2023/04/08 00:35:07;;;;;;;16.30;10.40;;;5.40;99.90;;;;;;5001078;28;20315;-79
2023/04/08 00:37:34;;;;;;;18.97;9.80;;;5.40;99.90;;;;;;5001403;28;20822;-80
2023/04/08 00:40:01;;;;;;;13.50;9.20;;;5.40;99.90;;;;;;5005142;28;20251;-79
2023/04/08 00:42:29;;;;;;;13.03;8.73;;;5.40;99.90;;;;;;4993848;28;20655;-79
2023/04/08 00:44:56;;;;;;;12.07;8.80;;;5.40;99.90;;;;;;4979870;28;20222;-79
2023/04/08 00:47:23;;;;;;;12.10;8.73;;;5.40;99.90;;;;;;4979158;28;20248;-79
2023/04/08 00:49:52;;;;;;;16.00;9.83;;;5.30;99.90;;;;;;4976292;28;20246;-81
2023/04/08 00:52:18;;;;;;;13.93;8.70;;;5.30;99.90;;;;;;4985769;28;20254;-80
2023/04/08 00:54:45;;;;;;;13.10;8.93;;;5.30;99.90;;;;;;4998730;28;20304;-80
2023/04/08 00:57:13;;;;;;;12.93;8.80;;;5.30;99.90;;;;;;5000354;28;20230;-79
2023/04/08 00:59:40;;;;;;;12.97;8.13;;;5.30;99.90;;;;;;5002186;28;20243;-80
2023/04/08 01:02:15;;;;;;;13.27;9.20;;;5.40;99.90;;;;;;5001847;28;20229;-80
2023/04/08 01:04:53;;;;;;;14.23;8.50;;;5.40;99.90;;;;;;4995938;28;20233;-79
2023/04/08 01:07:26;;;;;;;14.03;8.80;;;5.40;99.90;;;;;;4981365;28;20829;-80
2023/04/08 01:09:58;;;;;;;12.43;8.73;;;5.40;99.90;;;;;;4982102;28;20304;-78
2023/04/08 01:12:29;;;;;;;14.77;8.63;;;5.40;99.90;;;;;;4978511;28;20233;-78
2023/04/08 01:15:07;;;;;;;13.27;9.27;;;5.40;99.90;;;;;;4980987;28;20259;-78
2023/04/08 01:17:37;;;;;;;16.20;9.57;;;5.40;99.90;;;;;;4982166;28;20225;-78
2023/04/08 01:20:08;;;;;;;13.80;8.30;;;5.40;99.90;;;;;;4979370;28;20239;-79
2023/04/08 01:22:44;;;;;;;15.80;9.83;;;5.40;99.90;;;;;;4987254;28;20291;-79
2023/04/08 01:25:17;;;;;;;17.67;10.37;;;5.40;99.90;;;;;;4981641;28;20706;-78
2023/04/08 01:27:48;;;;;;;18.77;10.40;;;5.40;99.90;;;;;;4985837;28;20230;-78
2023/04/08 01:30:17;;;;;;;14.87;9.80;;;5.30;99.90;;;;;;4979044;28;20538;-78
2023/04/08 01:32:45;;;;;;;14.30;10.30;;;5.30;99.90;;;;;;4981052;28;20635;-78
2023/04/08 01:35:15;;;;;;;14.80;10.37;;;5.30;99.90;;;;;;4977181;28;20230;-78
2023/04/08 01:37:43;;;;;;;16.60;10.83;;;5.30;99.90;;;;;;4979793;28;20226;-77
2023/04/08 01:40:11;;;;;;;14.03;10.47;;;5.30;99.90;;;;;;4982441;28;20264;-77
2023/04/08 01:42:39;;;;;;;17.03;10.90;;;5.30;99.90;;;;;;4972695;28;20311;-78
2023/04/08 01:45:10;;;;;;;15.53;10.83;;;5.30;99.90;;;;;;4973895;28;20224;-78
2023/04/08 01:47:39;;;;;;;16.43;10.50;;;5.30;99.90;;;;;;4980971;28;20711;-78
2023/04/08 01:50:09;;;;;;;16.77;10.33;;;5.30;99.90;;;;;;4978581;28;20301;-77
2023/04/08 01:52:38;;;;;;;15.40;10.47;;;5.30;99.90;;;;;;4977491;28;20237;-77
2023/04/08 01:55:06;;;;;;;17.13;10.57;;;5.30;99.90;;;;;;4984118;28;20307;-77
2023/04/08 01:57:37;;;;;;;14.80;9.83;;;5.20;99.90;;;;;;4995582;28;20232;-79
2023/04/08 02:00:10;;;;;;;15.00;9.50;;;5.20;99.90;;;;;;4973734;28;20316;-78
2023/04/08 02:02:52;;;;;;;15.37;9.63;;;5.20;99.90;;;;;;4991054;28;20310;-80
2023/04/08 02:05:19;;;;;;;17.57;9.60;;;5.20;99.90;;;;;;4978947;28;20223;-79
2023/04/08 02:07:47;;;;;;;13.30;8.77;;;5.20;99.90;;;;;;4979407;28;20315;-78
2023/04/08 02:10:14;;;;;;;13.20;9.37;;;5.20;99.90;;;;;;4980067;28;20312;-78
2023/04/08 02:12:43;;;;;;;14.13;8.93;;;5.20;99.90;;;;;;4978593;28;20722;-78
2023/04/08 02:15:12;;;;;;;12.37;8.23;;;5.20;99.90;;;;;;4976472;28;20230;-77
2023/04/08 02:17:45;;;;;;;12.90;8.53;;;5.10;99.90;;;;;;4974109;28;21184;-78
2023/04/08 02:20:17;;;;;;;11.63;8.50;;;5.10;99.90;;;;;;4977068;28;20239;-77
2023/04/08 02:22:49;;;;;;;12.43;9.00;;;5.10;99.90;;;;;;4978933;28;20316;-78
2023/04/08 02:25:21;;;;;;;11.67;8.77;;;5.10;99.90;;;;;;4993739;28;20240;-78
2023/04/08 02:27:50;;;;;;;11.87;8.70;;;5.10;99.90;;;;;;4978583;28;20255;-79
2023/04/08 02:30:19;;;;;;;12.93;8.90;;;5.10;99.90;;;;;;4979106;28;20304;-78
2023/04/08 02:32:48;;;;;;;14.37;9.43;;;5.10;99.90;;;;;;4979202;28;20294;-78
2023/04/08 02:35:17;;;;;;;11.63;8.20;;;5.20;99.90;;;;;;4978356;28;20225;-78
2023/04/08 02:37:46;;;;;;;12.47;8.73;;;5.10;99.90;;;;;;4975765;28;20221;-78
2023/04/08 02:40:25;;;;;;;12.40;9.00;;;5.20;99.90;;;;;;4994744;28;20315;-78
2023/04/08 02:42:52;;;;;;;11.40;8.87;;;5.20;99.90;;;;;;4995107;28;20344;-78
2023/04/08 02:45:21;;;;;;;11.87;8.13;;;5.20;99.90;;;;;;4984967;28;20878;-78
2023/04/08 02:47:50;;;;;;;11.10;8.70;;;5.20;99.90;;;;;;4993384;28;20229;-78
2023/04/08 02:50:17;;;;;;;11.43;8.43;;;5.10;99.90;;;;;;4987001;28;20234;-78
2023/04/08 02:52:43;;;;;;;15.60;9.50;;;5.20;99.90;;;;;;4995106;28;20648;-79
2023/04/08 02:55:10;;;;;;;13.33;9.90;;;5.10;99.90;;;;;;4996146;28;20910;-78
2023/04/08 02:57:39;;;;;;;15.00;10.30;;;5.10;99.90;;;;;;4998769;28;20231;-78
2023/04/08 03:00:07;;;;;;;13.63;9.57;;;5.10;99.90;;;;;;4998178;28;21999;-80
2023/04/08 03:02:35;;;;;;;14.03;9.97;;;5.10;99.90;;;;;;4996914;28;20640;-80
2023/04/08 03:05:03;;;;;;;15.43;10.50;;;5.10;99.90;;;;;;4979822;28;20324;-79
2023/04/08 03:07:29;;;;;;;14.07;9.77;;;5.10;99.90;;;;;;4995151;28;20229;-79
2023/04/08 03:09:56;;;;;;;13.80;10.20;;;5.10;99.90;;;;;;4980370;28;20221;-77
2023/04/08 03:12:25;;;;;;;15.07;10.47;;;5.10;99.90;;;;;;4992057;28;20772;-79
2023/04/08 03:14:52;;;;;;;16.90;11.13;;;5.10;99.90;;;;;;5002626;28;20770;-79
2023/04/08 03:17:19;;;;;;;18.73;11.67;;;5.10;99.90;;;;;;4984336;28;20762;-80
2023/04/08 03:19:47;;;;;;;16.30;11.57;;;5.10;99.90;;;;;;4992282;28;20238;-79
2023/04/08 03:22:14;;;;;;;20.07;13.40;;;5.10;99.90;;;;;;5001303;28;20923;-79
2023/04/08 03:24:41;;;;;;;21.10;12.97;;;5.10;99.90;;;;;;5004098;28;20256;-78
2023/04/08 03:27:08;;;;;;;21.27;13.73;;;5.10;99.90;;;;;;5003482;28;20232;-79
2023/04/08 03:29:34;;;;;;;23.27;14.17;;;5.10;99.90;;;;;;5003939;28;20225;-79
2023/04/08 03:32:01;;;;;;;22.13;13.77;;;5.10;99.90;;;;;;5004107;28;20605;-79
2023/04/08 03:34:28;;;;;;;25.57;15.33;;;5.10;99.90;;;;;;5003720;28;20241;-79
2023/04/08 03:36:56;;;;;;;24.60;14.93;;;5.10;99.90;;;;;;5007769;28;20225;-79
2023/04/08 03:39:22;;;;;;;22.93;15.30;;;5.10;99.90;;;;;;5009329;28;20216;-79
2023/04/08 03:41:49;;;;;;;28.77;16.03;;;5.10;99.90;;;;;;5004295;28;20961;-79
2023/04/08 03:44:16;;;;;;;25.60;15.43;;;5.10;99.90;;;;;;5007411;28;20320;-78
2023/04/08 03:46:43;;;;;;;24.03;15.20;;;5.10;99.90;;;;;;5007455;28;20614;-79
2023/04/08 03:49:09;;;;;;;27.27;16.20;;;5.10;99.90;;;;;;5002554;28;20273;-80
2023/04/08 03:51:36;;;;;;;26.80;14.83;;;5.10;99.90;;;;;;5007709;28;20296;-79
2023/04/08 03:54:06;;;;;;;24.90;15.10;;;5.10;99.90;;;;;;5007760;28;20314;-80
2023/04/08 03:56:33;;;;;;;25.83;14.73;;;5.10;99.90;;;;;;5009345;28;20764;-80
2023/04/08 03:59:00;;;;;;;23.50;14.40;;;5.10;99.90;;;;;;5007168;28;20421;-79
2023/04/08 04:01:27;;;;;;;21.23;14.80;;;5.00;99.90;;;;;;4988846;28;20248;-79
2023/04/08 04:03:54;;;;;;;25.07;15.60;;;5.00;99.90;;;;;;5003854;28;20794;-79
2023/04/08 04:06:21;;;;;;;24.40;15.03;;;5.00;99.90;;;;;;5006421;28;20221;-79
2023/04/08 04:08:48;;;;;;;22.13;14.80;;;5.00;99.90;;;;;;5006508;28;20225;-79
2023/04/08 04:11:17;;;;;;;25.90;14.93;;;5.00;99.90;;;;;;5005866;28;20869;-80
2023/04/08 04:13:43;;;;;;;24.27;14.37;;;5.00;99.90;;;;;;5006882;28;20231;-79
2023/04/08 04:16:10;;;;;;;23.63;14.83;;;5.00;99.90;;;;;;5003497;28;20231;-79
2023/04/08 04:18:36;;;;;;;26.30;15.10;;;5.00;99.90;;;;;;5006351;28;20231;-79
2023/04/08 04:21:05;;;;;;;24.67;15.30;;;5.00;99.90;;;;;;5006105;28;20852;-81
2023/04/08 04:23:32;;;;;;;24.53;15.13;;;5.00;99.90;;;;;;4996079;28;20663;-80
2023/04/08 04:25:59;;;;;;;25.53;15.17;;;5.00;99.90;;;;;;4987046;28;20239;-80
2023/04/08 04:28:27;;;;;;;24.10;14.50;;;5.00;99.90;;;;;;4984454;28;20804;-80
2023/04/08 04:30:54;;;;;;;26.90;16.07;;;5.00;99.90;;;;;;4987253;28;20233;-81
2023/04/08 04:33:20;;;;;;;25.33;14.57;;;5.00;99.90;;;;;;4985956;28;20858;-81
2023/04/08 04:35:47;;;;;;;22.10;13.43;;;5.00;99.90;;;;;;4985834;28;20233;-81
2023/04/08 04:38:15;;;;;;;21.20;12.90;;;5.00;99.90;;;;;;4987593;28;20263;-81
2023/04/08 04:40:43;;;;;;;21.67;12.90;;;5.00;99.90;;;;;;4989043;28;20261;-80
2023/04/08 04:43:10;;;;;;;22.20;13.50;;;5.00;99.90;;;;;;4985511;28;20233;-80
2023/04/08 04:45:38;;;;;;;21.23;12.90;;;5.00;99.90;;;;;;4985326;28;20244;-80
2023/04/08 04:48:05;;;;;;;22.40;13.13;;;4.90;99.90;;;;;;4985299;28;20224;-80
2023/04/08 04:50:32;;;;;;;24.40;13.80;;;5.00;99.90;;;;;;4980253;28;20264;-80
2023/04/08 04:52:59;;;;;;;21.43;12.57;;;5.00;99.90;;;;;;4983698;28;20222;-79
2023/04/08 04:55:26;;;;;;;23.70;13.53;;;5.00;99.90;;;;;;4985933;28;20640;-80
2023/04/08 04:57:52;;;;;;;21.83;12.47;;;5.00;99.90;;;;;;4986678;28;20265;-81
2023/04/08 05:00:19;;;;;;;18.90;11.80;;;5.00;99.90;;;;;;4982194;28;20232;-79
2023/04/08 05:02:47;;;;;;;20.00;11.87;;;5.10;99.90;;;;;;4979869;28;20227;-80
2023/04/08 05:05:14;;;;;;;20.33;11.30;;;5.10;99.90;;;;;;4981962;28;20777;-80
2023/04/08 05:07:41;;;;;;;20.07;11.90;;;5.10;99.90;;;;;;5000283;28;20231;-81
2023/04/08 05:10:08;;;;;;;21.00;12.17;;;5.00;99.90;;;;;;4993182;28;20970;-80
2023/04/08 05:12:36;;;;;;;23.27;11.87;;;5.00;99.90;;;;;;4977657;28;20228;-80
2023/04/08 05:15:03;;;;;;;22.50;11.63;;;5.00;99.90;;;;;;5013077;28;20287;-80
2023/04/08 05:17:30;;;;;;;20.73;12.00;;;5.00;99.90;;;;;;4995272;28;20250;-80
2023/04/08 05:19:58;;;;;;;20.33;12.53;;;4.90;99.90;;;;;;5002346;28;20224;-80
2023/04/08 05:22:25;;;;;;;19.03;10.87;;;4.90;99.90;;;;;;5001576;28;20632;-80
2023/04/08 05:24:52;;;;;;;19.07;11.43;;;4.90;99.90;;;;;;5004034;28;20717;-81
2023/04/08 05:27:20;;;;;;;17.33;11.63;;;4.90;99.90;;;;;;4999389;28;20331;-80
2023/04/08 05:29:47;;;;;;;18.53;12.07;;;4.90;99.90;;;;;;5002734;28;20225;-80
2023/04/08 05:32:15;;;;;;;27.87;17.40;;;4.90;99.90;;;;;;5002041;28;20229;-80
2023/04/08 05:34:42;;;;;;;23.43;12.87;;;5.00;99.90;;;;;;5003139;28;20243;-76
2023/04/08 05:37:11;;;;;;;24.97;12.17;;;5.00;99.90;;;;;;4997508;28;20747;-77
2023/04/08 05:39:37;;;;;;;19.27;12.43;;;5.00;99.90;;;;;;4996397;28;20306;-77
2023/04/08 05:42:04;;;;;;;23.03;12.53;;;5.00;99.90;;;;;;4998110;28;20220;-77
2023/04/08 05:44:31;;;;;;;22.03;13.20;;;5.00;99.90;;;;;;5002158;28;20655;-76
2023/04/08 05:46:59;;;;;;;21.97;12.27;;;5.00;99.90;;;;;;5001519;28;20309;-77
2023/04/08 05:49:25;;;;;;;20.30;12.20;;;5.00;99.90;;;;;;4998204;28;20229;-78
2023/04/08 05:51:52;;;;;;;19.37;11.77;;;5.00;99.90;;;;;;5001812;28;20259;-77
2023/04/08 05:54:20;;;;;;;23.20;13.33;;;5.10;99.90;;;;;;5009750;28;20231;-77
2023/04/08 05:56:47;;;;;;;21.03;12.77;;;5.10;99.90;;;;;;5002997;28;20275;-77
2023/04/08 05:59:14;;;;;;;23.27;13.63;;;5.10;99.90;;;;;;5005432;28;20251;-78
2023/04/08 06:01:41;;;;;;;21.73;13.53;;;5.10;99.90;;;;;;4986905;28;20344;-78
2023/04/08 06:04:08;;;;;;;29.13;16.17;;;5.20;99.90;;;;;;4980413;28;20866;-78
2023/04/08 06:06:34;;;;;;;24.90;13.87;;;5.20;99.90;;;;;;4984804;28;20220;-77
2023/04/08 06:09:01;;;;;;;28.13;16.93;;;5.20;99.90;;;;;;4983902;28;20265;-77
2023/04/08 06:11:29;;;;;;;24.17;13.63;;;5.10;99.90;;;;;;4984062;28;20634;-77
2023/04/08 06:13:56;;;;;;;22.87;13.03;;;5.10;99.90;;;;;;4984613;28;20324;-76
2023/04/08 06:16:22;;;;;;;21.93;13.80;;;5.10;99.90;;;;;;4984759;28;20240;-77
2023/04/08 06:18:49;;;;;;;24.03;13.40;;;5.00;99.90;;;;;;4985277;28;20320;-76
2023/04/08 06:21:16;;;;;;;24.47;14.53;;;5.00;99.90;;;;;;4985010;28;20257;-78
2023/04/08 06:23:43;;;;;;;21.43;13.20;;;5.00;99.90;;;;;;4986497;28;20286;-77
2023/04/08 06:26:10;;;;;;;21.90;13.47;;;4.90;99.90;;;;;;4983189;28;21046;-77
2023/04/08 06:28:38;;;;;;;26.37;13.03;;;4.90;99.90;;;;;;4982268;28;20237;-77
2023/04/08 06:31:05;;;;;;;23.80;14.13;;;4.90;99.90;;;;;;4983123;28;20235;-79
2023/04/08 06:33:31;;;;;;;23.47;13.93;;;4.90;99.90;;;;;;4997987;28;20251;-80
2023/04/08 06:36:08;;;;;;;25.43;14.13;;;4.90;99.90;;;;;;4986636;28;20248;-79
2023/04/08 06:38:35;;;;;;;28.53;15.93;;;5.00;99.90;;;;;;4987175;28;20764;-80
2023/04/08 06:41:03;;;;;;;31.13;17.30;;;5.00;99.90;;;;;;4988378;28;20257;-79
2023/04/08 06:43:30;;;;;;;22.87;13.73;;;5.10;99.90;;;;;;5001766;28;20222;-79
2023/04/08 06:45:58;;;;;;;23.17;13.23;;;5.10;99.90;;;;;;4989087;28;20296;-80
2023/04/08 06:48:27;;;;;;;22.60;12.80;;;5.10;99.90;;;;;;4986882;28;20230;-81
2023/04/08 06:50:55;;;;;;;24.87;14.83;;;5.10;99.90;;;;;;4987737;28;20777;-80
2023/04/08 06:53:23;;;;;;;23.13;14.00;;;5.20;99.90;;;;;;4983904;28;20217;-80
2023/04/08 06:55:52;;;;;;;23.50;12.57;;;5.20;99.90;;;;;;4985520;28;20238;-81
2023/04/08 06:58:18;;;;;;;19.97;11.90;;;5.20;99.90;;;;;;4995885;28;20226;-80
2023/04/08 07:00:46;;;;;;;17.57;11.43;;;5.20;99.90;;;;;;5002363;28;20235;-80
2023/04/08 07:03:14;;;;;;;19.03;11.43;;;5.20;99.90;;;;;;4984045;28;20232;-81
2023/04/08 07:05:41;;;;;;;19.57;11.27;;;5.20;99.90;;;;;;4985690;28;20770;-81
2023/04/08 07:08:08;;;;;;;17.27;10.23;;;5.30;99.90;;;;;;4982689;28;20732;-79
2023/04/08 07:10:35;;;;;;;15.47;10.77;;;5.30;99.90;;;;;;4989979;28;20252;-80
2023/04/08 07:13:03;;;;;;;16.37;10.80;;;5.20;99.90;;;;;;4989502;28;20220;-80
2023/04/08 07:15:30;;;;;;;18.17;10.93;;;5.20;99.90;;;;;;5006358;28;20324;-78
2023/04/08 07:17:57;;;;;;;19.70;11.47;;;5.20;99.90;;;;;;4990199;28;20337;-76
2023/04/08 07:20:26;;;;;;;20.57;11.30;;;5.20;99.90;;;;;;4988883;28;20232;-78
2023/04/08 07:22:53;;;;;;;18.47;11.40;;;5.30;99.90;;;;;;4990964;28;20233;-77
2023/04/08 07:25:19;;;;;;;19.20;11.33;;;5.30;99.90;;;;;;4989251;28;20228;-78
2023/04/08 07:27:46;;;;;;;28.77;13.43;;;5.40;99.90;;;;;;4989824;28;20235;-81
2023/04/08 07:30:13;;;;;;;20.07;11.97;;;5.50;99.90;;;;;;4989857;28;20224;-80
2023/04/08 07:32:40;;;;;;;18.73;11.03;;;5.50;99.90;;;;;;4987287;28;20228;-78
2023/04/08 07:35:08;;;;;;;18.23;11.17;;;5.50;99.90;;;;;;4988375;28;20233;-79
2023/04/08 07:37:36;;;;;;;17.83;10.83;;;5.60;99.90;;;;;;4988423;28;20868;-82
2023/04/08 07:40:02;;;;;;;16.53;11.53;;;5.60;99.90;;;;;;4988606;28;20237;-83
2023/04/08 07:42:29;;;;;;;18.43;11.27;;;5.50;99.90;;;;;;4976212;28;20428;-84
2023/04/08 07:44:56;;;;;;;18.63;11.93;;;5.60;99.90;;;;;;4994719;28;20396;-82
2023/04/08 07:47:23;;;;;;;19.03;11.53;;;5.50;99.90;;;;;;4981662;28;20241;-82
2023/04/08 07:49:49;;;;;;;19.93;11.53;;;5.60;99.90;;;;;;4989635;28;20221;-82
2023/04/08 07:52:16;;;;;;;18.13;11.03;;;5.60;99.90;;;;;;4988226;28;20222;-82
2023/04/08 07:54:44;;;;;;;19.63;11.17;;;5.70;99.90;;;;;;5002427;28;20229;-81
2023/04/08 07:57:11;;;;;;;17.13;10.87;;;5.80;99.90;;;;;;4981726;28;20243;-81
2023/04/08 07:59:38;;;;;;;15.70;9.17;;;5.90;99.90;;;;;;4983864;28;20317;-83
2023/04/08 08:02:04;;;;;;;15.53;9.97;;;5.90;99.90;;;;;;4986548;28;20317;-81
2023/04/08 08:04:31;;;;;;;16.10;10.53;;;6.00;99.90;;;;;;4985747;28;20272;-81
2023/04/08 08:06:58;;;;;;;18.50;10.77;;;6.10;99.90;;;;;;4989299;28;20247;-81
2023/04/08 08:09:24;;;;;;;16.90;11.10;;;6.20;99.90;;;;;;4985907;28;20230;-83
2023/04/08 08:11:52;;;;;;;15.20;9.87;;;6.20;99.90;;;;;;4989485;28;20227;-82
2023/04/08 08:14:20;;;;;;;17.00;10.40;;;6.20;99.90;;;;;;4988991;28;20226;-83
2023/04/08 08:16:48;;;;;;;14.80;10.20;;;6.20;99.90;;;;;;4988185;28;20560;-81
2023/04/08 08:19:15;;;;;;;18.03;11.43;;;6.20;99.90;;;;;;4987951;28;20225;-82
2023/04/08 08:21:42;;;;;;;15.70;10.27;;;6.20;99.90;;;;;;4986825;28;20226;-85
2023/04/08 08:24:08;;;;;;;17.60;11.23;;;6.10;99.90;;;;;;4991301;28;20241;-84
2023/04/08 08:26:36;;;;;;;19.50;11.73;;;6.10;99.90;;;;;;4991981;28;20230;-82
2023/04/08 08:29:05;;;;;;;17.60;11.60;;;6.10;99.90;;;;;;4988418;28;20244;-83
2023/04/08 08:31:32;;;;;;;20.20;12.13;;;6.10;99.90;;;;;;5000337;28;20765;-83
2023/04/08 08:33:58;;;;;;;19.77;12.73;;;6.10;99.90;;;;;;4989388;28;20250;-84
2023/04/08 08:36:26;;;;;;;22.13;14.00;;;6.10;99.90;;;;;;4996801;28;20225;-83
2023/04/08 08:38:53;;;;;;;19.87;12.77;;;6.10;99.90;;;;;;4991213;28;20218;-82
2023/04/08 08:41:20;;;;;;;15.33;10.87;;;6.00;99.90;;;;;;4995679;28;20225;-84
2023/04/08 08:43:47;;;;;;;18.03;11.47;;;6.00;99.90;;;;;;5007245;28;20233;-83
2023/04/08 08:46:17;;;;;;;18.00;11.57;;;6.00;99.90;;;;;;4996004;28;20253;-83
2023/04/08 08:48:44;;;;;;;21.43;12.43;;;6.00;99.90;;;;;;4985816;28;22517;-82
2023/04/08 08:51:12;;;;;;;18.73;11.57;;;6.00;99.90;;;;;;4995803;28;20233;-83
2023/04/08 08:53:43;;;;;;;17.20;12.10;;;6.00;99.90;;;;;;4995807;28;20718;-83
2023/04/08 08:56:10;;;;;;;17.10;11.27;;;6.00;99.90;;;;;;5003598;28;20261;-82
2023/04/08 08:58:37;;;;;;;15.73;9.83;;;6.00;99.90;;;;;;4993937;28;20226;-84
2023/04/08 09:01:32;;;;;;;18.07;10.70;;;6.00;99.90;;;;;;4993012;28;20229;-84
2023/04/08 09:04:10;;;;;;;15.47;9.70;;;6.10;99.90;;;;;;4986720;28;20261;-82
2023/04/08 09:06:37;;;;;;;19.23;10.70;;;6.10;99.90;;;;;;5005401;28;20319;-84
2023/04/08 09:09:09;;;;;;;15.53;10.17;;;6.10;99.90;;;;;;4999601;28;20210;-84
2023/04/08 09:11:36;;;;;;;14.07;9.70;;;6.10;99.90;;;;;;4997600;28;20224;-83
2023/04/08 09:14:03;;;;;;;12.27;8.83;;;6.20;99.90;;;;;;5005805;28;20225;-82
2023/04/08 09:16:32;;;;;;;14.70;8.90;;;6.20;99.90;;;;;;4996927;28;20229;-82
2023/04/08 09:19:09;;;;;;;13.57;8.77;;;6.20;99.90;;;;;;5007541;28;20218;-81
2023/04/08 09:21:36;;;;;;;12.97;9.07;;;6.30;99.90;;;;;;4989740;28;20982;-82
2023/04/08 09:24:03;;;;;;;13.63;9.37;;;6.40;99.90;;;;;;4992687;28;20750;-82
2023/04/08 09:26:30;;;;;;;15.57;10.23;;;6.50;99.90;;;;;;4985566;28;20229;-82
2023/04/08 09:29:02;;;;;;;16.17;10.20;;;6.60;99.90;;;;;;4992395;28;20245;-82
2023/04/08 09:31:30;;;;;;;20.10;11.20;;;6.60;99.90;;;;;;4985518;28;20256;-81
2023/04/08 09:34:01;;;;;;;15.73;10.90;;;6.60;99.90;;;;;;4986609;28;20304;-83
2023/04/08 09:36:28;;;;;;;16.10;10.30;;;6.60;99.90;;;;;;4995368;28;20609;-82
2023/04/08 09:38:55;;;;;;;16.80;12.73;;;6.60;99.90;;;;;;5001574;28;20235;-83
2023/04/08 09:41:23;;;;;;;16.80;11.13;;;6.60;99.90;;;;;;4992377;28;20249;-82
2023/04/08 09:43:51;;;;;;;17.83;11.57;;;6.60;99.90;;;;;;4980248;28;20248;-83
2023/04/08 09:46:20;;;;;;;17.97;11.27;;;6.60;99.90;;;;;;4988141;28;20240;-83
2023/04/08 09:48:55;;;;;;;18.07;12.00;;;6.70;99.90;;;;;;4983471;28;20232;-82
2023/04/08 09:51:25;;;;;;;17.10;11.47;;;6.80;99.90;;;;;;4985295;28;20230;-82
2023/04/08 09:54:00;;;;;;;13.33;11.07;;;6.90;99.90;;;;;;4996232;28;20256;-84
2023/04/08 09:56:36;;;;;;;16.67;10.10;;;6.90;99.90;;;;;;4982497;28;20232;-84
2023/04/08 09:59:07;;;;;;;15.17;10.30;;;7.00;99.90;;;;;;5001292;28;20225;-83
2023/04/08 10:01:39;;;;;;;14.10;10.10;;;7.10;99.90;;;;;;4981918;28;20237;-83
2023/04/08 10:04:09;;;;;;;15.73;10.37;;;7.10;99.90;;;;;;4986233;28;20974;-83
2023/04/08 10:06:39;;;;;;;16.03;10.90;;;7.20;99.90;;;;;;4997687;28;20239;-82
2023/04/08 10:09:06;;;;;;;18.67;12.43;;;7.20;99.90;;;;;;5011207;28;20227;-83
2023/04/08 10:11:35;;;;;;;16.07;11.97;;;7.20;99.90;;;;;;5011695;28;20231;-83
2023/04/08 10:14:02;;;;;;;21.97;13.07;;;7.30;99.90;;;;;;4990212;28;20735;-82
2023/04/08 10:16:28;;;;;;;21.27;13.00;;;7.30;99.90;;;;;;4989156;28;20231;-82
2023/04/08 10:18:56;;;;;;;18.80;12.23;;;7.30;99.90;;;;;;4999037;28;20275;-82
2023/04/08 10:21:38;;;;;;;21.43;12.53;;;7.30;99.90;;;;;;5004081;28;20319;-82
2023/04/08 10:24:09;;;;;;;19.33;12.83;;;7.30;99.90;;;;;;5006652;28;20301;-82
2023/04/08 10:26:38;;;;;;;19.83;12.37;;;7.30;99.90;;;;;;5004971;28;20255;-82
2023/04/08 10:29:45;;;;;;;18.57;12.20;;;7.30;99.90;;;;;;5003626;28;20220;-84
2023/04/08 10:32:30;;;;;;;15.83;10.67;;;7.30;99.90;;;;;;5005208;28;20255;-82
2023/04/08 10:34:56;;;;;;;18.93;11.37;;;7.30;99.90;;;;;;5006298;28;20222;-84
2023/04/08 10:37:25;;;;;;;17.27;10.90;;;7.30;99.90;;;;;;5005193;28;20253;-82
2023/04/08 10:39:54;;;;;;;16.17;9.97;;;7.30;99.90;;;;;;5008139;28;20247;-82
2023/04/08 10:42:27;;;;;;;15.63;10.73;;;7.20;99.90;;;;;;5003503;28;20347;-82
2023/04/08 10:44:54;;;;;;;18.23;11.00;;;7.20;99.90;;;;;;5004738;28;20230;-82
2023/04/08 10:47:26;;;;;;;15.53;10.53;;;7.20;99.90;;;;;;5006123;28;20292;-83
2023/04/08 10:49:52;;;;;;;15.87;11.03;;;7.30;99.90;;;;;;5004827;28;20636;-83
2023/04/08 10:52:20;;;;;;;16.93;10.93;;;7.30;99.90;;;;;;5019519;28;20217;-83
2023/04/08 10:54:48;;;;;;;16.33;10.17;;;7.40;99.90;;;;;;5006274;28;20225;-82
2023/04/08 10:57:23;;;;;;;15.33;10.03;;;7.40;99.90;;;;;;5006532;28;20232;-82
2023/04/08 10:59:50;;;;;;;16.77;12.10;;;7.40;99.90;;;;;;5006552;28;20664;-82
2023/04/08 11:02:16;;;;;;;17.20;11.07;;;7.50;99.90;;;;;;5007884;28;20694;-83
2023/04/08 11:04:43;;;;;;;14.93;10.43;;;7.50;99.90;;;;;;5022293;28;20232;-83
2023/04/08 11:07:11;;;;;;;13.27;9.83;;;7.40;99.90;;;;;;5005762;28;21104;-82
2023/04/08 11:09:39;;;;;;;15.63;10.83;;;7.50;99.90;;;;;;5006879;28;20229;-84
2023/04/08 11:12:08;;;;;;;16.23;10.77;;;7.50;99.90;;;;;;5007608;28;20260;-82
2023/04/08 11:14:37;;;;;;;16.03;12.17;;;7.60;99.90;;;;;;5004849;28;20320;-83
2023/04/08 11:17:04;;;;;;;16.27;11.50;;;7.60;99.90;;;;;;5000275;28;20794;-83
2023/04/08 11:19:31;;;;;;;13.30;10.63;;;7.70;99.90;;;;;;4999133;28;20754;-82
2023/04/08 11:21:58;;;;;;;19.00;12.20;;;7.80;99.90;;;;;;4997790;28;20232;-83
2023/04/08 11:24:26;;;;;;;15.60;11.13;;;7.90;99.90;;;;;;4990262;28;20237;-82
2023/04/08 11:26:53;;;;;;;20.83;14.63;;;7.90;99.90;;;;;;4981854;28;20657;-80
2023/04/08 11:29:21;;;;;;;30.97;20.90;;;7.90;99.90;;;;;;4980749;28;20317;-80
2023/04/08 11:31:50;;;;;;;27.07;19.07;;;7.90;99.90;;;;;;4986807;28;21497;-80
2023/04/08 11:34:22;;;;;;;23.23;16.17;;;7.90;99.90;;;;;;5016568;28;20304;-79
2023/04/08 11:36:49;;;;;;;19.57;12.83;;;7.90;99.90;;;;;;4995828;28;20224;-78
2023/04/08 11:39:16;;;;;;;15.80;11.57;;;7.90;99.90;;;;;;5001248;28;20236;-79
2023/04/08 11:41:43;;;;;;;15.40;11.10;;;7.90;99.90;;;;;;5002274;28;20306;-79
2023/04/08 11:44:10;;;;;;;16.10;11.03;;;8.00;99.90;;;;;;5001523;28;20232;-79
2023/04/08 11:46:39;;;;;;;16.37;10.97;;;7.90;99.90;;;;;;5005476;28;20320;-79
2023/04/08 11:49:07;;;;;;;34.40;22.60;;;7.90;99.90;;;;;;4996826;28;20244;-79
2023/04/08 11:51:36;;;;;;;22.00;15.53;;;8.00;99.90;;;;;;5004017;28;20308;-79
2023/04/08 11:54:06;;;;;;;23.43;15.63;;;8.00;99.90;;;;;;5000304;28;20240;-79
2023/04/08 11:56:45;;;;;;;21.00;15.00;;;8.00;99.90;;;;;;4978638;28;20277;-79
2023/04/08 11:59:11;;;;;;;18.33;11.67;;;8.00;99.90;;;;;;4981317;28;20237;-79
2023/04/08 12:01:39;;;;;;;19.67;14.53;;;8.00;99.90;;;;;;4982406;28;20234;-79
2023/04/08 12:04:09;;;;;;;37.83;25.80;;;8.00;99.90;;;;;;4987752;28;20226;-79
2023/04/08 12:06:35;;;;;;;35.13;21.80;;;8.00;99.90;;;;;;4998878;28;20326;-80
2023/04/08 12:09:02;;;;;;;21.27;15.33;;;8.00;99.90;;;;;;5004211;28;20223;-79
2023/04/08 12:11:29;;;;;;;20.43;14.57;;;8.10;99.90;;;;;;5002837;28;21092;-79
2023/04/08 12:13:56;;;;;;;21.07;13.77;;;8.10;99.90;;;;;;5006982;28;20247;-79
2023/04/08 12:16:23;;;;;;;17.40;11.87;;;8.10;99.90;;;;;;5006957;28;20307;-79
2023/04/08 12:18:51;;;;;;;14.93;10.60;;;8.20;99.90;;;;;;5018158;28;20238;-79
2023/04/08 12:21:17;;;;;;;16.23;11.37;;;8.30;99.90;;;;;;5008928;28;20591;-79
2023/04/08 12:23:44;;;;;;;15.30;10.77;;;8.40;99.90;;;;;;5006587;28;20240;-80
2023/04/08 12:26:12;;;;;;;16.07;10.97;;;8.50;99.90;;;;;;4998282;28;20307;-79
2023/04/08 12:28:39;;;;;;;17.57;11.03;;;8.50;99.90;;;;;;5001793;28;20225;-79
2023/04/08 12:31:06;;;;;;;15.73;11.03;;;8.60;99.90;;;;;;4994028;28;20769;-79
2023/04/08 12:33:33;;;;;;;15.63;12.20;;;8.70;99.90;;;;;;4975992;28;20244;-80
2023/04/08 12:36:01;;;;;;;17.47;14.10;;;8.70;99.90;;;;;;5017918;28;20220;-79
2023/04/08 12:38:27;;;;;;;21.47;16.27;;;8.70;99.90;;;;;;5000211;28;20228;-79
2023/04/08 12:40:55;;;;;;;24.63;15.57;;;8.70;99.90;;;;;;4981697;28;20236;-79
2023/04/08 12:43:23;;;;;;;22.70;13.63;;;8.60;99.90;;;;;;4997476;28;20775;-79